createdAt,value
2018-02-08T00:00:39.005Z,97394.94
2018-02-08T00:03:10.096Z,97392.25
2018-02-08T00:05:41.220Z,97398.06
2018-02-08T00:08:12.316Z,97400.45
2018-02-08T00:10:43.431Z,97401.23
2018-02-08T00:13:14.538Z,97397.44
2018-02-08T00:15:45.638Z,97396.94
2018-02-08T00:18:16.723Z,97399.63
2018-02-08T00:20:47.827Z,97399.34
2018-02-08T00:23:18.928Z,97399.22
2018-02-08T00:25:50.004Z,97399.11
2018-02-08T00:28:22.013Z,97397.80
2018-02-08T00:30:53.105Z,97405.41
2018-02-08T00:33:24.186Z,97401.61
2018-02-08T00:35:55.323Z,97401.30
2018-02-08T00:38:26.446Z,97400.71
2018-02-08T00:40:57.592Z,97399.31
2018-02-08T00:43:28.699Z,97401.42
2018-02-08T00:45:59.831Z,97401.11
2018-02-08T00:48:30.929Z,97399.92
2018-02-08T00:51:02.043Z,97402.42
2018-02-08T00:53:33.164Z,97404.02
2018-02-08T00:56:04.301Z,97404.24
2018-02-08T00:58:35.948Z,97404.92
2018-02-08T01:01:07.106Z,97402.45
2018-02-08T01:03:38.209Z,97405.04
2018-02-08T01:06:09.314Z,97408.25
2018-02-08T01:08:40.415Z,97414.83
2018-02-08T01:11:11.457Z,97420.05
2018-02-08T01:13:42.505Z,97421.46
2018-02-08T01:16:13.587Z,97417.44
2018-02-08T01:18:44.711Z,97426.45
2018-02-08T01:21:15.757Z,97427.84
2018-02-08T01:23:46.865Z,97428.84
2018-02-08T01:26:17.973Z,97427.66
2018-02-08T01:28:49.078Z,97429.84
2018-02-08T01:31:20.195Z,97428.45
2018-02-08T01:33:51.259Z,97428.74
2018-02-08T01:36:22.376Z,97430.84
2018-02-08T01:38:53.435Z,97433.65
2018-02-08T01:41:24.499Z,97429.53
2018-02-08T01:43:55.579Z,97435.02
2018-02-08T01:46:26.617Z,97433.02
2018-02-08T01:48:57.682Z,97432.50
2018-02-08T01:51:28.723Z,97422.10
2018-02-08T01:53:59.769Z,97420.90
2018-02-08T01:56:30.823Z,97417.70
2018-02-08T01:59:01.895Z,97423.31
2018-02-08T02:01:32.994Z,97423.52
2018-02-08T02:04:04.220Z,97426.42
2018-02-08T02:06:35.317Z,97428.01
2018-02-08T02:09:06.393Z,97420.41
2018-02-08T02:11:37.435Z,97423.83
2018-02-08T02:14:08.552Z,97420.00
2018-02-08T02:16:39.651Z,97420.11
2018-02-08T02:19:10.731Z,97414.91
2018-02-08T02:21:41.773Z,97421.41
2018-02-08T02:24:12.825Z,97419.61
2018-02-08T02:26:43.947Z,97420.20
2018-02-08T02:29:15.013Z,97419.99
2018-02-08T02:31:46.099Z,97421.89
2018-02-08T02:34:17.149Z,97420.08
2018-02-08T02:36:48.245Z,97424.17
2018-02-08T02:39:19.320Z,97417.16
2018-02-08T02:41:50.399Z,97427.78
2018-02-08T02:44:21.402Z,97429.50
2018-02-08T02:46:52.441Z,97429.50
2018-02-08T02:49:23.505Z,97427.91
2018-02-08T02:51:54.652Z,97426.20
2018-02-08T02:54:25.730Z,97432.02
2018-02-08T02:56:56.834Z,97424.03
2018-02-08T02:59:27.910Z,97428.01
2018-02-08T03:01:59.010Z,97420.12
2018-02-08T03:04:30.044Z,97430.82
2018-02-08T03:07:01.125Z,97433.61
2018-02-08T03:09:32.167Z,97435.41
2018-02-08T03:12:03.261Z,97428.70
2018-02-08T03:14:34.367Z,97433.20
2018-02-08T03:17:05.457Z,97426.48
2018-02-08T03:19:36.502Z,97424.11
2018-02-08T03:22:07.544Z,97429.50
2018-02-08T03:24:38.623Z,97427.42
2018-02-08T03:27:09.711Z,97431.52
2018-02-08T03:29:40.793Z,97429.32
2018-02-08T03:32:11.909Z,97428.11
2018-02-08T03:34:42.971Z,97433.10
2018-02-08T03:37:14.079Z,97438.39
2018-02-08T03:39:45.144Z,97443.69
2018-02-08T03:42:16.224Z,97449.70
2018-02-08T03:44:47.292Z,97450.28
2018-02-08T03:47:18.375Z,97448.68
2018-02-08T03:49:49.404Z,97455.79
2018-02-08T03:52:20.493Z,97458.69
2018-02-08T03:54:51.573Z,97457.02
2018-02-08T03:57:22.621Z,97456.11
2018-02-08T03:59:53.755Z,97458.00
2018-02-08T04:02:24.820Z,97456.93
2018-02-08T04:04:55.830Z,97464.22
2018-02-08T04:07:26.901Z,97467.31
2018-02-08T04:09:57.953Z,97470.91
2018-02-08T04:12:29.019Z,97475.23
2018-02-08T04:15:00.057Z,97474.94
2018-02-08T04:17:31.149Z,97472.13
2018-02-08T04:20:02.207Z,97468.11
2018-02-08T04:22:33.272Z,97472.33
2018-02-08T04:25:04.329Z,97479.30
2018-02-08T04:27:35.366Z,97477.89
2018-02-08T04:30:06.462Z,97475.88
2018-02-08T04:32:37.542Z,97485.69
2018-02-08T04:35:08.640Z,97479.59
2018-02-08T04:37:39.705Z,97482.91
2018-02-08T04:40:23.135Z,97487.70
2018-02-08T04:43:06.640Z,97495.67
2018-02-08T04:45:49.975Z,97500.37
2018-02-08T04:48:21.071Z,97500.94
2018-02-08T04:50:52.175Z,97502.33
2018-02-08T04:53:23.257Z,97510.34
2018-02-08T04:55:54.335Z,97510.73
2018-02-08T04:58:25.416Z,97507.95
2018-02-08T05:00:56.495Z,97510.48
2018-02-08T05:03:27.584Z,97511.28
2018-02-08T05:05:58.631Z,97510.55
2018-02-08T05:08:29.708Z,97513.55
2018-02-08T05:11:00.778Z,97513.83
2018-02-08T05:13:31.808Z,97512.47
2018-02-08T05:16:02.891Z,97520.57
2018-02-08T05:18:33.970Z,97524.67
2018-02-08T05:21:05.031Z,97526.59
2018-02-08T05:23:36.086Z,97519.91
2018-02-08T05:26:07.238Z,97518.08
2018-02-08T05:28:38.326Z,97523.97
2018-02-08T05:31:09.392Z,97529.36
2018-02-08T05:33:40.485Z,97527.16
2018-02-08T05:36:11.533Z,97525.16
2018-02-08T05:38:42.608Z,97522.45
2018-02-08T05:41:13.723Z,97526.05
2018-02-08T05:43:44.788Z,97526.45
2018-02-08T05:46:15.848Z,97531.45
2018-02-08T05:48:46.870Z,97532.78
2018-02-08T05:51:17.890Z,97536.70
2018-02-08T05:53:48.985Z,97541.50
2018-02-08T05:56:20.050Z,97537.88
2018-02-08T05:58:51.164Z,97545.50
2018-02-08T06:01:22.268Z,97540.89
2018-02-08T06:03:53.842Z,97546.48
2018-02-08T06:06:24.910Z,97552.89
2018-02-08T06:08:56.430Z,97553.81
2018-02-08T06:11:27.528Z,97559.72
2018-02-08T06:13:58.644Z,97560.69
2018-02-08T06:16:29.743Z,97570.47
2018-02-08T06:19:00.864Z,97568.55
2018-02-08T06:21:31.945Z,97575.36
2018-02-08T06:24:03.023Z,97571.98
2018-02-08T06:26:34.104Z,97579.00
2018-02-08T06:29:05.177Z,97579.31
2018-02-08T06:31:36.298Z,97581.20
2018-02-08T06:34:07.383Z,97584.02
2018-02-08T06:36:38.523Z,97587.30
2018-02-08T06:39:09.580Z,97583.30
2018-02-08T06:41:40.690Z,97588.30
2018-02-08T06:44:11.748Z,97585.47
2018-02-08T06:46:42.887Z,97592.09
2018-02-08T06:49:13.949Z,97592.24
2018-02-08T06:51:45.026Z,97594.63
2018-02-08T06:54:16.090Z,97598.34
2018-02-08T06:56:47.209Z,97602.62
2018-02-08T06:59:18.307Z,97609.80
2018-02-08T07:01:49.391Z,97614.59
2018-02-08T07:04:20.475Z,97617.28
2018-02-08T07:06:51.525Z,97613.79
2018-02-08T07:09:22.624Z,97618.50
2018-02-08T07:11:53.663Z,97620.31
2018-02-08T07:14:24.703Z,97619.70
2018-02-08T07:16:55.786Z,97628.21
2018-02-08T07:19:26.821Z,97635.83
2018-02-08T07:21:57.849Z,97637.95
2018-02-08T07:24:28.901Z,97637.64
2018-02-08T07:26:59.974Z,97638.48
2018-02-08T07:29:31.015Z,97638.50
2018-02-08T07:32:02.096Z,97640.82
2018-02-08T07:34:33.247Z,97649.62
2018-02-08T07:37:04.334Z,97647.45
2018-02-08T07:39:35.437Z,97656.77
2018-02-08T07:42:06.560Z,97655.88
2018-02-08T07:44:37.683Z,97658.30
2018-02-08T07:47:08.763Z,97653.30
2018-02-08T07:49:39.823Z,97654.13
2018-02-08T07:52:10.882Z,97663.94
2018-02-08T07:54:41.955Z,97660.16
2018-02-08T07:57:13.032Z,97660.55
2018-02-08T07:59:44.155Z,97663.53
2018-02-08T08:02:15.229Z,97662.56
2018-02-08T08:04:53.133Z,97663.87
2018-02-08T08:07:24.241Z,97658.78
2018-02-08T08:09:55.340Z,97662.31
2018-02-08T08:12:26.400Z,97668.23
2018-02-08T08:14:57.470Z,97664.92
2018-02-08T08:17:28.522Z,97660.83
2018-02-08T08:19:59.643Z,97667.64
2018-02-08T08:22:30.690Z,97664.04
2018-02-08T08:25:02.767Z,97664.22
2018-02-08T08:27:33.926Z,97666.75
2018-02-08T08:30:04.997Z,97672.44
2018-02-08T08:32:36.086Z,97669.24
2018-02-08T08:35:07.199Z,97668.84
2018-02-08T08:37:38.267Z,97670.64
2018-02-08T08:40:09.363Z,97675.25
2018-02-08T08:42:40.439Z,97675.14
2018-02-08T08:45:11.515Z,97680.45
2018-02-08T08:47:42.581Z,97684.47
2018-02-08T08:50:13.641Z,97684.16
2018-02-08T08:52:44.714Z,97684.97
2018-02-08T08:55:15.792Z,97681.25
2018-02-08T08:57:46.858Z,97691.67
2018-02-08T09:00:17.954Z,97696.80
2018-02-08T09:02:48.994Z,97701.30
2018-02-08T09:05:20.087Z,97698.98
2018-02-08T09:07:51.150Z,97702.22
2018-02-08T09:10:22.231Z,97701.89
2018-02-08T09:12:53.262Z,97698.39
2018-02-08T09:15:24.336Z,97698.47
2018-02-08T09:17:55.378Z,97696.83
2018-02-08T09:20:26.438Z,97693.58
2018-02-08T09:22:57.535Z,97694.62
2018-02-08T09:25:28.585Z,97692.05
2018-02-08T09:27:59.658Z,97693.03
2018-02-08T09:30:30.695Z,97697.88
2018-02-08T09:33:01.768Z,97693.39
2018-02-08T09:35:32.864Z,97693.31
2018-02-08T09:38:03.978Z,97694.53
2018-02-08T09:40:35.058Z,97696.30
2018-02-08T09:43:06.115Z,97696.74
2018-02-08T09:45:37.251Z,97694.47
2018-02-08T09:48:08.355Z,97696.59
2018-02-08T09:50:39.434Z,97695.47
2018-02-08T09:53:10.515Z,97703.39
2018-02-08T09:55:41.612Z,97698.33
2018-02-08T09:58:12.634Z,97704.32
2018-02-08T10:00:43.784Z,97701.83
2018-02-08T10:03:14.874Z,97701.14
2018-02-08T10:05:45.992Z,97703.28
2018-02-08T10:08:17.120Z,97703.78
2018-02-08T10:10:49.174Z,97697.92
2018-02-08T10:13:20.227Z,97693.16
2018-02-08T10:15:51.268Z,97692.76
2018-02-08T10:18:22.924Z,97700.83
2018-02-08T10:20:53.986Z,97694.95
2018-02-08T10:23:25.073Z,97699.09
2018-02-08T10:25:56.134Z,97701.83
2018-02-08T10:28:27.187Z,97704.26
2018-02-08T10:30:58.275Z,97709.58
2018-02-08T10:33:29.318Z,97708.67
2018-02-08T10:36:00.430Z,97706.92
2018-02-08T10:38:31.543Z,97702.17
2018-02-08T10:41:02.665Z,97700.09
2018-02-08T10:43:33.700Z,97710.02
2018-02-08T10:46:04.793Z,97714.38
2018-02-08T10:48:35.845Z,97712.05
2018-02-08T10:51:07.015Z,97710.05
2018-02-08T10:53:38.063Z,97704.98
2018-02-08T10:56:09.192Z,97704.25
2018-02-08T10:58:40.251Z,97709.97
2018-02-08T11:01:11.352Z,97708.98
2018-02-08T11:03:42.417Z,97708.79
2018-02-08T11:06:14.174Z,97712.08
2018-02-08T11:08:45.201Z,97701.80
2018-02-08T11:11:16.309Z,97709.14
2018-02-08T11:13:47.371Z,97708.20
2018-02-08T11:16:18.546Z,97719.36
2018-02-08T11:18:49.623Z,97718.45
2018-02-08T11:21:20.714Z,97722.59
2018-02-08T11:23:51.775Z,97715.20
2018-02-08T11:26:22.843Z,97719.41
2018-02-08T11:28:53.952Z,97719.98
2018-02-08T11:31:25.020Z,97708.88
2018-02-08T11:33:56.116Z,97714.22
2018-02-08T11:36:27.161Z,97711.84
2018-02-08T11:38:58.290Z,97714.30
2018-02-08T11:41:29.380Z,97700.15
2018-02-08T11:44:00.451Z,97705.98
2018-02-08T11:46:31.557Z,97698.60
2018-02-08T11:49:02.820Z,97696.28
2018-02-08T11:51:33.954Z,97692.52
2018-02-08T11:54:05.170Z,97688.18
2018-02-08T11:56:36.242Z,97689.06
2018-02-08T11:59:07.324Z,97697.23
2018-02-08T12:01:38.438Z,97691.22
2018-02-08T12:04:09.568Z,97691.58
2018-02-08T12:06:41.471Z,97694.64
2018-02-08T12:09:12.561Z,97692.19
2018-02-08T12:11:43.655Z,97692.43
2018-02-08T12:14:14.689Z,97689.28
2018-02-08T12:16:45.795Z,97693.66
2018-02-08T12:19:16.892Z,97692.89
2018-02-08T12:21:48.026Z,97694.63
2018-02-08T12:24:19.129Z,97698.41
2018-02-08T12:26:50.232Z,97697.72
2018-02-08T12:29:21.325Z,97708.13
2018-02-08T12:31:52.371Z,97704.30
2018-02-08T12:34:23.456Z,97705.08
2018-02-08T12:36:54.531Z,97706.41
2018-02-08T12:39:26.542Z,97702.23
2018-02-08T12:41:57.618Z,97692.72
2018-02-08T12:44:28.714Z,97692.55
2018-02-08T12:46:59.777Z,97691.42
2018-02-08T12:49:30.894Z,97694.84
2018-02-08T12:52:01.958Z,97684.89
2018-02-08T12:54:33.040Z,97687.12
2018-02-08T12:57:04.177Z,97683.70
2018-02-08T12:59:35.257Z,97679.42
2018-02-08T13:02:06.308Z,97672.98
2018-02-08T13:04:37.960Z,97679.66
2018-02-08T13:07:09.204Z,97681.16
2018-02-08T13:09:40.299Z,97674.09
2018-02-08T13:12:11.401Z,97672.40
2018-02-08T13:14:42.494Z,97671.85
2018-02-08T13:17:13.589Z,97668.45
2018-02-08T13:19:44.710Z,97667.65
2018-02-08T13:22:15.807Z,97667.90
2018-02-08T13:24:46.897Z,97670.05
2018-02-08T13:27:18.083Z,97669.41
2018-02-08T13:29:49.199Z,97667.84
2018-02-08T13:32:20.246Z,97670.45
2018-02-08T13:34:51.357Z,97666.09
2018-02-08T13:37:22.467Z,97669.11
2018-02-08T13:43:00.442Z,97668.95
2018-02-08T13:45:32.687Z,97673.06
2018-02-08T13:48:07.547Z,97675.58
2018-02-08T13:54:03.469Z,97677.65
2018-02-08T13:56:36.423Z,97682.86
2018-02-08T13:59:13.581Z,97674.94
2018-02-08T14:01:47.515Z,97682.28
2018-02-08T14:04:18.597Z,97690.72
2018-02-08T14:06:49.639Z,97691.13
2018-02-08T14:09:20.719Z,97694.17
2018-02-08T14:11:51.842Z,97685.71
2018-02-08T14:14:22.903Z,97686.50
2018-02-08T14:16:53.981Z,97682.38
2018-02-08T14:19:25.093Z,97684.00
2018-02-08T14:21:56.186Z,97686.22
2018-02-08T14:24:27.248Z,97687.97
2018-02-08T14:26:58.354Z,97686.25
2018-02-08T14:29:29.423Z,97686.36
2018-02-08T14:32:00.496Z,97687.44
2018-02-08T14:34:31.608Z,97683.91
2018-02-08T14:37:03.496Z,97683.93
2018-02-08T14:39:34.560Z,97689.13
2018-02-08T14:42:05.673Z,97682.48
2018-02-08T14:44:36.725Z,97685.41
2018-02-08T14:47:07.823Z,97680.34
2018-02-08T14:49:39.609Z,97684.98
2018-02-08T14:52:10.729Z,97688.36
2018-02-08T14:54:41.812Z,97693.43
2018-02-08T14:57:12.863Z,97694.83
2018-02-08T14:59:43.944Z,97697.91
2018-02-08T15:02:14.992Z,97696.44
2018-02-08T15:04:46.086Z,97701.52
2018-02-08T15:07:17.170Z,97695.89
2018-02-08T15:09:48.211Z,97699.70
2018-02-08T15:12:19.263Z,97701.34
2018-02-08T15:14:50.348Z,97693.28
2018-02-08T15:17:21.361Z,97697.17
2018-02-08T15:19:52.421Z,97696.77
2018-02-08T15:22:23.476Z,97697.41
2018-02-08T15:24:54.563Z,97702.91
2018-02-08T15:27:25.927Z,97698.38
2018-02-08T15:29:57.051Z,97698.08
2018-02-08T15:32:28.138Z,97694.41
2018-02-08T15:34:59.572Z,97695.14
2018-02-08T15:37:30.651Z,97695.14
2018-02-08T15:40:01.727Z,97697.14
2018-02-08T15:42:32.780Z,97704.48
2018-02-08T15:45:03.929Z,97713.44
2018-02-08T15:47:35.044Z,97711.13
2018-02-08T15:50:06.131Z,97709.58
2018-02-08T15:52:37.217Z,97713.91
2018-02-08T15:55:08.303Z,97719.83
2018-02-08T15:57:39.384Z,97713.23
2018-02-08T16:00:10.439Z,97717.66
2018-02-08T16:02:41.526Z,97715.27
2018-02-08T16:05:12.591Z,97723.61
2018-02-08T16:07:43.782Z,97726.42
2018-02-08T16:10:14.834Z,97719.63
2018-02-08T16:12:45.885Z,97725.84
2018-02-08T16:15:16.993Z,97723.44
2018-02-08T16:17:48.037Z,97726.23
2018-02-08T16:20:19.123Z,97721.34
2018-02-08T16:22:50.194Z,97724.84
2018-02-08T16:25:21.257Z,97727.75
2018-02-08T16:27:52.318Z,97732.08
2018-02-08T16:30:23.395Z,97731.06
2018-02-08T16:32:54.459Z,97727.96
2018-02-08T16:35:25.518Z,97729.05
2018-02-08T16:37:56.594Z,97732.38
2018-02-08T16:40:27.700Z,97733.17
2018-02-08T16:42:58.785Z,97737.91
2018-02-08T16:45:29.883Z,97735.89
2018-02-08T16:48:00.909Z,97736.20
2018-02-08T16:50:32.022Z,97736.79
2018-02-08T16:53:03.123Z,97740.91
2018-02-08T16:55:34.184Z,97739.48
2018-02-08T16:58:05.269Z,97737.11
2018-02-08T17:00:36.334Z,97741.59
2018-02-08T17:03:07.394Z,97746.42
2018-02-08T17:05:38.456Z,97747.31
2018-02-08T17:08:09.548Z,97740.59
2018-02-08T17:10:40.627Z,97740.10
2018-02-08T17:13:11.790Z,97742.22
2018-02-08T17:15:42.897Z,97745.23
2018-02-08T17:18:13.995Z,97741.09
2018-02-08T17:20:45.042Z,97748.03
2018-02-08T17:23:16.093Z,97739.59
2018-02-08T17:25:47.132Z,97743.70
2018-02-08T17:28:18.229Z,97746.72
2018-02-08T17:30:49.283Z,97747.53
2018-02-08T17:33:20.385Z,97743.02
2018-02-08T17:35:51.438Z,97744.53
2018-02-08T17:38:22.545Z,97749.12
2018-02-08T17:40:53.620Z,97747.53
2018-02-08T17:43:24.672Z,97750.72
2018-02-08T17:45:55.806Z,97749.52
2018-02-08T17:48:26.883Z,97751.22
2018-02-08T17:50:57.974Z,97751.64
2018-02-08T17:53:29.089Z,97758.56
2018-02-08T17:56:00.202Z,97756.16
2018-02-08T17:58:31.346Z,97756.84
2018-02-08T18:01:02.482Z,97753.23
2018-02-08T18:03:33.552Z,97750.13
2018-02-08T18:06:11.579Z,97754.33
2018-02-08T18:08:42.786Z,97754.65
2018-02-08T18:11:13.868Z,97756.05
2018-02-08T18:13:44.940Z,97760.17
2018-02-08T18:16:16.008Z,97753.25
2018-02-08T18:18:47.113Z,97765.37
2018-02-08T18:21:18.161Z,97765.08
2018-02-08T18:23:49.267Z,97763.35
2018-02-08T18:26:20.373Z,97766.98
2018-02-08T18:28:51.426Z,97775.00
2018-02-08T18:31:22.470Z,97769.70
2018-02-08T18:33:53.539Z,97782.50
2018-02-08T18:36:24.572Z,97779.70
2018-02-08T18:38:55.714Z,97781.62
2018-02-08T18:41:26.770Z,97780.91
2018-02-08T18:43:57.854Z,97781.59
2018-02-08T18:46:28.901Z,97784.83
2018-02-08T18:49:00.016Z,97788.62
2018-02-08T18:51:31.119Z,97784.42
2018-02-08T18:54:02.176Z,97788.25
2018-02-08T18:56:33.282Z,97787.93
2018-02-08T18:59:04.379Z,97788.63
2018-02-08T19:01:35.491Z,97790.95
2018-02-08T19:04:06.525Z,97791.13
2018-02-08T19:06:37.616Z,97788.05
2018-02-08T19:09:09.721Z,97793.55
2018-02-08T19:11:40.847Z,97791.13
2018-02-08T19:14:11.953Z,97784.83
2018-02-08T19:16:42.996Z,97790.55
2018-02-08T19:19:14.096Z,97792.34
2018-02-08T19:21:45.177Z,97792.95
2018-02-08T19:24:16.282Z,97791.25
2018-02-08T19:26:47.364Z,97794.05
2018-02-08T19:29:18.518Z,97792.03
2018-02-08T19:31:49.591Z,97797.55
2018-02-08T19:34:20.693Z,97801.98
2018-02-08T19:36:51.783Z,97801.97
2018-02-08T19:39:22.847Z,97798.27
2018-02-08T19:41:53.894Z,97799.26
2018-02-08T19:44:24.946Z,97793.33
2018-02-08T19:46:56.028Z,97794.23
2018-02-08T19:49:27.092Z,97788.73
2018-02-08T19:51:58.130Z,97785.81
2018-02-08T19:54:29.163Z,97793.44
2018-02-08T19:57:00.259Z,97797.25
2018-02-08T19:59:31.286Z,97793.35
2018-02-08T20:02:02.426Z,97795.86
2018-02-08T20:04:33.567Z,97790.84
2018-02-08T20:07:04.939Z,97793.16
2018-02-08T20:09:36.029Z,97796.67
2018-02-08T20:12:07.199Z,97790.84
2018-02-08T20:14:38.294Z,97792.26
2018-02-08T20:17:10.870Z,97796.16
2018-02-08T20:19:41.923Z,97793.66
2018-02-08T20:22:12.993Z,97787.63
2018-02-08T20:24:44.083Z,97786.72
2018-02-08T20:27:15.174Z,97787.72
2018-02-08T20:29:46.395Z,97786.41
2018-02-08T20:32:17.498Z,97786.52
2018-02-08T20:34:48.571Z,97786.22
2018-02-08T20:37:19.648Z,97782.80
2018-02-08T20:39:50.767Z,97779.81
2018-02-08T20:42:27.763Z,97782.00
2018-02-08T20:44:58.876Z,97780.70
2018-02-08T20:47:29.953Z,97782.83
2018-02-08T20:50:02.977Z,97781.00
2018-02-08T20:52:34.020Z,97779.11
2018-02-08T20:55:05.081Z,97786.30
2018-02-08T20:57:36.234Z,97776.97
2018-02-08T21:00:07.339Z,97781.63
2018-02-08T21:02:38.382Z,97783.87
2018-02-08T21:05:09.471Z,97786.34
2018-02-08T21:07:40.582Z,97776.55
2018-02-08T21:10:11.675Z,97778.02
2018-02-08T21:12:42.724Z,97783.27
2018-02-08T21:15:13.799Z,97784.23
2018-02-08T21:17:44.934Z,97774.28
2018-02-08T21:20:16.062Z,97776.75
2018-02-08T21:22:47.155Z,97769.81
2018-02-08T21:25:18.267Z,97776.39
2018-02-08T21:27:49.349Z,97777.17
2018-02-08T21:30:20.425Z,97778.38
2018-02-08T21:32:51.518Z,97767.48
2018-02-08T21:35:22.592Z,97769.68
2018-02-08T21:37:53.698Z,97765.99
2018-02-08T21:40:31.845Z,97774.47
2018-02-08T21:43:02.976Z,97771.06
2018-02-08T21:45:34.036Z,97772.33
2018-02-08T21:48:05.155Z,97771.64
2018-02-08T21:50:36.227Z,97774.16
2018-02-08T21:53:07.323Z,97764.39
2018-02-08T21:55:38.406Z,97766.53
2018-02-08T21:58:09.453Z,97760.34
2018-02-08T22:00:40.583Z,97755.23
2018-02-08T22:03:11.643Z,97753.06
2018-02-08T22:05:42.714Z,97755.17
2018-02-08T22:08:13.799Z,97756.82
2018-02-08T22:10:44.871Z,97760.45
2018-02-08T22:13:15.965Z,97751.87
2018-02-08T22:15:47.059Z,97749.98
2018-02-08T22:18:18.110Z,97747.50
2018-02-08T22:20:49.203Z,97753.31
2018-02-08T22:23:20.297Z,97752.73
2018-02-08T22:25:51.398Z,97757.38
2018-02-08T22:28:22.456Z,97755.36
2018-02-08T22:30:53.579Z,97755.36
2018-02-08T22:33:24.596Z,97754.95
2018-02-08T22:35:55.658Z,97756.36
2018-02-08T22:38:26.780Z,97759.42
2018-02-08T22:40:57.855Z,97760.30
2018-02-08T22:43:28.922Z,97757.16
2018-02-08T22:45:59.986Z,97760.50
2018-02-08T22:48:31.032Z,97763.16
2018-02-08T22:51:02.120Z,97767.83
2018-02-08T22:53:33.215Z,97765.47
2018-02-08T22:56:04.270Z,97779.14
2018-02-08T22:58:35.377Z,97773.40
2018-02-08T23:01:06.472Z,97767.66
2018-02-08T23:03:37.595Z,97771.10
2018-02-08T23:06:08.692Z,97768.59
2018-02-08T23:08:39.770Z,97766.83
2018-02-08T23:11:10.822Z,97760.95
2018-02-08T23:13:41.889Z,97768.69
2018-02-08T23:16:12.980Z,97765.55
2018-02-08T23:18:44.074Z,97763.02
2018-02-08T23:21:15.138Z,97763.19
2018-02-08T23:23:46.188Z,97771.59
2018-02-08T23:26:17.252Z,97770.23
2018-02-08T23:28:48.378Z,97773.10
2018-02-08T23:31:19.430Z,97772.08
2018-02-08T23:33:50.488Z,97763.79
2018-02-08T23:36:24.409Z,97766.01
2018-02-08T23:38:55.474Z,97766.02
2018-02-08T23:41:26.595Z,97766.33
2018-02-08T23:43:57.661Z,97760.59
2018-02-08T23:46:28.783Z,97761.08
2018-02-08T23:48:59.847Z,97771.18
2018-02-08T23:51:30.931Z,97764.42
2018-02-08T23:54:02.116Z,97763.13
2018-02-08T23:56:33.155Z,97765.31
2018-02-08T23:59:04.260Z,97765.88
